Kerteh Airport Kerteh MY
ICAO: WMKE
IATA:
Category: Medium
Scheduled Services:

Elevation: 18 ft
TransAlt. 11000 ft.

Airport Communications:
GND:121.8
TWR:123.3

WMKE Zoom In..

If you have problems with the map follow the link
https://www.worldairports.se/pages/airport.php?
ICAO=WMKE

Runways:

(A) RW 16 length 4469 ft width 98 ft
---- / hdg 162

(B) RW 34 length 4469 ft width 98 ft
ILS 108.70 / hdg 342

Location; WMKE
Day. 14 / Time. 08.00 Zulu
* QNH: 1008
* Temperature: 29° c. 84.2°f.
* Wind from: 040° Speed 07 kn.
Dewpoint: 25° c.
Visibility: 10 km or more.
Clouds: Few 1400 ft.
Clouds: Scattered 1500 ft.
Clouds: Broken 27000 ft.

WMKE 140800Z 04007KT 340V100 9999 FEW014CB SCT015 BKN270 29/25 Q1008


Wind From 040°
Speed 07 kn.

 
 
jpsmedia worldairports.se 2019   terms of use